This is the latest recevied weather packets stored in our database for station/object N3FYI-5. If no packets are shown the sender has not sent any weather packets the latest 10 day(s).
| Time | Temp. | Humidity | Pressure | Rain* | Wind** | Luminosity | Snow |
|---|---|---|---|---|---|---|---|
| 1777937232 | 18.33° C | 41% | 1014.3 hPa | 0 mm | - | - | - |
| 1777936752 | 18.89° C | 41% | 1014.4 hPa | 0 mm | - | - | - |
| 1777936273 | 18.89° C | 39% | 1014.4 hPa | 0 mm | - | - | - |
| 1777935792 | 19.44° C | 38% | 1014.4 hPa | 0 mm | - | - | - |
| 1777935317 | 19.44° C | 35% | 1014.2 hPa | 0 mm | - | - | - |
| 1777934832 | 20° C | 34% | 1014.3 hPa | 0 mm | - | - | - |
| 1777934352 | 20° C | 32% | 1014.2 hPa | 0 mm | - | - | - |
| 1777933874 | 20° C | 32% | 1014.3 hPa | 0 mm | - | - | - |
| 1777933394 | 20.56° C | 31% | 1014.3 hPa | 0 mm | - | - | - |
| 1777932912 | 20.56° C | 30% | 1014.2 hPa | 0 mm | - | - | - |
| 1777932432 | 21.11° C | 30% | 1014.2 hPa | 0 mm | - | - | - |
| 1777931954 | 21.67° C | 29% | 1014.2 hPa | 0 mm | - | - | - |
| 1777931475 | 21.67° C | 29% | 1014.2 hPa | 0 mm | - | - | - |
| 1777930995 | 21.67° C | 30% | 1014.3 hPa | 0 mm | - | - | - |
| 1777930512 | 21.67° C | 28% | 1014.3 hPa | 0 mm | - | - | - |
| 1777930034 | 22.22° C | 29% | 1014.3 hPa | 0 mm | - | - | - |
| 1777929552 | 22.22° C | 28% | 1014.3 hPa | 0 mm | - | - | - |
| 1777929072 | 22.22° C | 29% | 1014.4 hPa | 0 mm | - | - | - |
| 1777928594 | 22.22° C | 30% | 1014.4 hPa | 0 mm | - | - | - |
| 1777928112 | 22.22° C | 29% | 1014.4 hPa | 0 mm | - | - | - |
| 1777927632 | 22.22° C | 29% | 1014.5 hPa | 0 mm | - | - | - |
| 1777927152 | 22.22° C | 30% | 1014.6 hPa | 0 mm | - | - | - |
| 1777926672 | 22.78° C | 30% | 1014.8 hPa | 0 mm | - | - | - |
| 1777926194 | 22.78° C | 30% | 1014.7 hPa | 0 mm | - | - | - |
| 1777925712 | 22.22° C | 32% | 1014.9 hPa | 0 mm | - | - | - |
* Rain latest hour (hover to see other rain measurements)
** Current wind speed in m/s (hover to see current wind gust speed)